createdAt,value
2023-01-20T00:01:55.764Z,11.12
2023-01-20T00:04:22.313Z,12.25
2023-01-20T00:06:49.011Z,11.45
2023-01-20T00:09:17.928Z,10.88
2023-01-20T00:11:44.820Z,10.90
2023-01-20T00:14:11.796Z,11.40
2023-01-20T00:16:38.389Z,11.95
2023-01-20T00:19:05.161Z,12.25
2023-01-20T00:21:31.999Z,14.05
2023-01-20T00:23:58.572Z,13.27
2023-01-20T00:26:25.596Z,12.68
2023-01-20T00:28:57.646Z,11.60
2023-01-20T00:31:26.978Z,12.80
2023-01-20T00:33:56.939Z,10.93
2023-01-20T00:36:25.201Z,11.60
2023-01-20T00:38:51.972Z,13.25
2023-01-20T00:41:19.000Z,13.90
2023-01-20T00:43:46.371Z,15.20
2023-01-20T00:46:13.083Z,12.55
2023-01-20T00:48:39.739Z,11.18
2023-01-20T00:53:41.569Z,11.57
2023-01-20T00:56:08.167Z,13.02
2023-01-20T00:58:34.757Z,12.93
2023-01-20T01:01:01.587Z,12.73
2023-01-20T01:03:29.026Z,11.48
2023-01-20T01:09:55.152Z,12.60
2023-01-20T01:12:21.891Z,12.50
2023-01-20T01:14:48.445Z,12.07
2023-01-20T01:17:14.995Z,12.57
2023-01-20T01:19:41.707Z,11.77
2023-01-20T01:22:08.289Z,12.02
2023-01-20T01:24:34.885Z,12.02
2023-01-20T01:27:01.570Z,12.55
2023-01-20T01:29:28.099Z,12.55
2023-01-20T01:31:55.118Z,12.90
2023-01-20T01:34:21.737Z,13.60
2023-01-20T01:36:50.515Z,12.15
2023-01-20T01:39:17.024Z,12.73
2023-01-20T02:01:55.386Z,13.10
2023-01-20T02:04:24.747Z,12.80
2023-01-20T02:06:55.467Z,13.32
2023-01-20T02:09:22.847Z,15.43
2023-01-20T02:12:00.578Z,14.95
2023-01-20T02:14:37.804Z,16.27
2023-01-20T02:17:23.175Z,15.00
2023-01-20T02:20:16.744Z,15.63
2023-01-20T02:35:55.753Z,14.87
2023-01-20T02:38:33.489Z,15.63
2023-01-20T02:41:57.443Z,15.38
2023-01-20T02:45:06.376Z,13.25
2023-01-20T02:47:51.737Z,14.23
2023-01-20T02:50:36.722Z,14.87
2023-01-20T02:53:04.852Z,13.40
2023-01-20T02:55:54.283Z,13.05
2023-01-20T02:58:34.042Z,12.82
2023-01-20T03:01:09.640Z,12.37
2023-01-20T03:03:39.539Z,12.85
2023-01-20T03:06:12.708Z,13.20
2023-01-20T03:11:09.158Z,12.55
2023-01-20T03:13:45.775Z,13.35
2023-01-20T03:16:15.943Z,14.38
2023-01-20T03:18:42.738Z,14.90
2023-01-20T03:21:10.420Z,17.98
2023-01-20T03:23:48.092Z,18.67
2023-01-20T03:26:16.900Z,17.05
2023-01-20T03:28:45.130Z,14.20
2023-01-20T03:31:35.847Z,13.98
2023-01-20T03:34:10.983Z,14.10
2023-01-20T03:36:39.893Z,14.35
2023-01-20T03:39:06.663Z,15.18
2023-01-20T03:42:29.137Z,13.98
2023-01-20T03:45:40.119Z,12.60
2023-01-20T03:48:08.807Z,12.15
2023-01-20T03:50:57.060Z,12.20
2023-01-20T03:53:45.543Z,12.48
2023-01-20T03:56:35.409Z,12.27
2023-01-20T03:59:03.772Z,13.38
2023-01-20T04:01:36.068Z,13.05
2023-01-20T04:04:05.339Z,12.68
2023-01-20T04:06:34.138Z,10.93
2023-01-20T04:09:14.451Z,12.52
2023-01-20T04:11:41.399Z,11.98
2023-01-20T04:14:11.118Z,11.77
2023-01-20T04:17:04.779Z,11.85
2023-01-20T04:22:09.643Z,11.48
2023-01-20T04:25:21.361Z,11.18
2023-01-20T04:27:48.003Z,11.38
2023-01-20T04:30:14.891Z,10.73
2023-01-20T04:32:41.594Z,12.68
2023-01-20T04:35:13.005Z,11.27
2023-01-20T04:37:39.872Z,11.40
2023-01-20T04:40:07.045Z,11.43
2023-01-20T04:42:33.581Z,10.55
2023-01-20T04:45:00.264Z,11.50
2023-01-20T04:47:30.390Z,10.90
2023-01-20T04:49:57.067Z,11.07
2023-01-20T04:52:23.627Z,11.73
2023-01-20T04:54:53.308Z,11.15
2023-01-20T04:57:19.890Z,11.40
2023-01-20T04:59:46.916Z,11.32
2023-01-20T05:02:15.560Z,10.05
2023-01-20T05:04:42.369Z,9.02
2023-01-20T05:07:09.188Z,8.82
2023-01-20T05:09:35.784Z,9.25
2023-01-20T05:12:02.521Z,8.50
2023-01-20T05:14:29.312Z,8.40
2023-01-20T05:16:55.987Z,8.68
2023-01-20T05:19:22.508Z,8.85
2023-01-20T05:21:49.116Z,9.48
2023-01-20T05:24:15.802Z,8.60
2023-01-20T05:26:42.368Z,8.65
2023-01-20T05:29:09.268Z,8.45
2023-01-20T05:31:37.621Z,8.18
2023-01-20T05:34:05.067Z,8.52
2023-01-20T05:36:32.808Z,8.45
2023-01-20T05:38:59.391Z,8.80
2023-01-20T05:41:26.083Z,8.50
2023-01-20T05:43:54.004Z,7.93
2023-01-20T05:46:21.189Z,8.38
2023-01-20T05:48:47.958Z,8.02
2023-01-20T05:51:14.612Z,8.43
2023-01-20T05:53:41.219Z,8.90
2023-01-20T05:56:08.126Z,8.15
2023-01-20T05:58:34.790Z,7.60
2023-01-20T06:01:10.824Z,8.23
2023-01-20T06:03:38.174Z,7.43
2023-01-20T06:06:07.493Z,8.27
2023-01-20T06:08:35.072Z,8.38
2023-01-20T06:19:42.537Z,8.65
2023-01-20T06:22:46.932Z,10.23
2023-01-20T06:25:35.412Z,9.13
2023-01-20T06:38:29.363Z,9.35
2023-01-20T07:04:53.459Z,9.98
2023-01-20T07:07:20.027Z,11.25
2023-01-20T07:14:57.165Z,10.38
2023-01-20T07:32:03.941Z,10.27
2023-01-20T07:34:30.754Z,9.60
2023-01-20T07:36:57.440Z,8.10
2023-01-20T07:39:24.026Z,8.73
2023-01-20T07:41:50.661Z,9.48
2023-01-20T07:58:00.964Z,11.00
2023-01-20T08:00:27.924Z,10.93
2023-01-20T08:08:05.242Z,9.57
2023-01-20T08:10:31.806Z,11.07
2023-01-20T08:20:57.844Z,9.30
2023-01-20T08:23:24.708Z,9.18
2023-01-20T08:25:59.836Z,8.73
2023-01-20T08:28:27.199Z,8.38
2023-01-20T08:30:54.481Z,9.13
2023-01-20T08:33:21.442Z,9.77
2023-01-20T08:35:48.415Z,8.50
2023-01-20T08:38:32.252Z,7.43
2023-01-20T08:40:58.913Z,7.57
2023-01-20T08:43:25.511Z,9.15
2023-01-20T08:48:34.786Z,8.57
2023-01-20T08:51:04.570Z,8.25
2023-01-20T08:53:31.251Z,7.78
2023-01-20T08:58:54.224Z,8.60
2023-01-20T09:04:10.243Z,7.50
2023-01-20T09:09:14.045Z,9.10
2023-01-20T09:20:32.568Z,7.55
2023-01-20T09:31:51.457Z,8.52
2023-01-20T09:34:24.154Z,7.65
2023-01-20T09:36:55.985Z,7.82
2023-01-20T09:42:50.081Z,8.80
2023-01-20T09:45:38.540Z,9.95
2023-01-20T09:48:48.801Z,9.60
2023-01-20T09:51:56.480Z,9.35
2023-01-20T09:54:29.375Z,8.60
2023-01-20T09:57:57.797Z,8.48
2023-01-20T10:00:46.940Z,9.70
2023-01-20T10:03:39.102Z,10.13
2023-01-20T10:06:14.490Z,10.10
2023-01-20T10:09:09.972Z,9.40
2023-01-20T10:11:42.795Z,8.38
2023-01-20T10:14:33.238Z,7.95
2023-01-20T10:17:06.984Z,7.82
2023-01-20T10:19:50.221Z,7.85
2023-01-20T10:25:16.304Z,6.70
2023-01-20T10:27:52.686Z,6.40
2023-01-20T10:30:23.693Z,7.93
2023-01-20T10:33:09.154Z,6.28
2023-01-20T10:35:43.242Z,5.90
2023-01-20T10:38:21.357Z,5.95
2023-01-20T10:40:57.229Z,5.53
2023-01-20T10:43:23.994Z,6.07
2023-01-20T10:45:56.431Z,5.62
2023-01-20T10:49:01.609Z,6.35
2023-01-20T10:51:39.500Z,6.30
2023-01-20T10:54:24.874Z,6.32
2023-01-20T10:56:57.143Z,6.87
2023-01-20T11:02:34.975Z,6.68
2023-01-20T11:05:10.283Z,7.12
2023-01-20T11:07:37.132Z,5.65
2023-01-20T11:10:18.507Z,5.40
2023-01-20T11:12:50.076Z,5.57
2023-01-20T11:15:46.602Z,6.10
2023-01-20T11:18:37.743Z,5.90
2023-01-20T11:21:25.049Z,6.18
2023-01-20T11:23:57.921Z,6.12
2023-01-20T11:26:28.363Z,6.60
2023-01-20T11:29:02.036Z,6.18
2023-01-20T11:32:01.135Z,6.70
2023-01-20T11:34:31.273Z,6.35
2023-01-20T11:37:06.693Z,5.28
2023-01-20T11:39:37.449Z,5.78
2023-01-20T11:42:12.204Z,6.22
2023-01-20T11:44:45.315Z,5.68
2023-01-20T11:47:35.446Z,5.43
2023-01-20T11:50:04.995Z,6.97
2023-01-20T11:53:10.883Z,6.43
2023-01-20T11:55:50.566Z,6.05
2023-01-20T11:58:57.628Z,5.78
2023-01-20T12:02:01.877Z,5.62
2023-01-20T12:04:56.404Z,6.40
2023-01-20T12:07:31.829Z,6.50
2023-01-20T12:10:04.619Z,6.40
2023-01-20T12:12:54.783Z,6.62
2023-01-20T12:15:24.266Z,6.47
2023-01-20T12:18:00.448Z,6.97
2023-01-20T12:23:46.865Z,6.40
2023-01-20T12:26:16.167Z,6.78
2023-01-20T12:28:54.638Z,8.52
2023-01-20T12:31:53.063Z,7.03
2023-01-20T12:34:36.552Z,5.93
2023-01-20T12:37:18.480Z,6.68
2023-01-20T12:40:16.108Z,6.67
2023-01-20T12:43:18.223Z,5.97
2023-01-20T12:45:59.654Z,7.55
2023-01-20T12:48:42.866Z,8.20
2023-01-20T12:51:27.990Z,6.97
2023-01-20T12:54:21.142Z,6.65
2023-01-20T12:57:07.248Z,7.12
2023-01-20T13:00:23.755Z,6.82
2023-01-20T13:06:10.638Z,6.82
2023-01-20T13:09:10.804Z,7.32
2023-01-20T13:12:38.877Z,6.70
2023-01-20T13:15:23.453Z,7.45
2023-01-20T13:18:08.608Z,7.60
2023-01-20T13:20:40.597Z,7.78
2023-01-20T13:23:12.866Z,7.87
2023-01-20T13:25:58.174Z,7.50
2023-01-20T13:28:31.167Z,7.75
2023-01-20T13:33:43.376Z,7.12
2023-01-20T13:36:23.889Z,6.82
2023-01-20T13:39:11.302Z,8.88
2023-01-20T13:41:52.007Z,10.50
2023-01-20T13:44:39.062Z,11.98
2023-01-20T13:47:10.829Z,12.93
2023-01-20T13:49:54.540Z,14.40
2023-01-20T13:52:52.417Z,13.77
2023-01-20T13:55:50.704Z,15.32
2023-01-20T13:58:21.786Z,15.38
2023-01-20T14:00:51.215Z,16.48
2023-01-20T14:03:30.212Z,17.37
2023-01-20T14:05:58.715Z,18.85
2023-01-20T14:08:27.326Z,19.02
2023-01-20T14:11:24.260Z,19.37
2023-01-20T14:14:01.802Z,19.85
2023-01-20T14:16:35.401Z,19.70
2023-01-20T14:19:18.361Z,19.83
2023-01-20T14:21:45.092Z,20.58
2023-01-20T14:24:37.791Z,19.77
2023-01-20T14:27:24.245Z,20.23
2023-01-20T14:29:53.695Z,20.10
2023-01-20T14:32:28.487Z,19.30
2023-01-20T14:34:56.098Z,20.05
2023-01-20T14:37:37.678Z,19.83
2023-01-20T14:40:10.455Z,20.15
2023-01-20T14:42:38.731Z,18.40
2023-01-20T14:45:19.830Z,19.65
2023-01-20T14:47:47.507Z,18.62
2023-01-20T14:50:16.589Z,20.45
2023-01-20T14:52:43.663Z,18.87
2023-01-20T14:55:29.150Z,18.12
2023-01-20T14:57:56.086Z,18.45
2023-01-20T15:00:26.223Z,18.42
2023-01-20T15:03:10.355Z,18.42
2023-01-20T15:05:40.871Z,17.30
2023-01-20T15:08:26.117Z,18.35
2023-01-20T15:11:11.246Z,21.00
2023-01-20T15:13:39.222Z,21.23
2023-01-20T15:16:18.975Z,24.83
2023-01-20T15:19:15.192Z,20.73
2023-01-20T15:21:45.757Z,33.50
2023-01-20T15:24:12.248Z,23.42
2023-01-20T15:26:38.897Z,21.87
2023-01-20T15:29:27.140Z,22.65
2023-01-20T15:31:56.118Z,25.20
2023-01-20T15:34:23.512Z,25.35
2023-01-20T15:36:51.574Z,25.08
2023-01-20T15:39:20.967Z,23.80
2023-01-20T15:41:48.760Z,23.23
2023-01-20T15:44:15.723Z,38.33
2023-01-20T15:46:42.428Z,37.60
2023-01-20T15:49:12.470Z,39.83
2023-01-20T15:51:39.156Z,30.37
2023-01-20T15:54:09.364Z,24.65
2023-01-20T15:56:38.876Z,21.12
2023-01-20T15:59:17.244Z,21.20
2023-01-20T16:01:47.259Z,20.88
2023-01-20T16:04:13.945Z,20.80
2023-01-20T16:06:40.704Z,22.80
2023-01-20T16:09:20.214Z,21.35
2023-01-20T16:11:47.649Z,21.45
2023-01-20T16:14:14.288Z,21.52
2023-01-20T16:16:41.229Z,21.20
2023-01-20T16:19:12.273Z,21.20
2023-01-20T16:21:38.932Z,21.05
2023-01-20T16:24:06.093Z,20.75
2023-01-20T16:26:34.549Z,20.75
2023-01-20T16:29:01.361Z,22.00
2023-01-20T16:31:28.559Z,21.70
2023-01-20T16:33:55.630Z,21.58
2023-01-20T16:36:25.427Z,21.55
2023-01-20T16:38:52.297Z,21.50
2023-01-20T16:41:27.586Z,21.70
2023-01-20T16:43:55.641Z,21.30
2023-01-20T16:46:28.656Z,20.98
2023-01-20T16:49:03.495Z,21.67
2023-01-20T16:51:31.186Z,20.88
2023-01-20T16:53:58.787Z,22.35
2023-01-20T16:56:28.392Z,21.23
2023-01-20T16:58:59.531Z,20.85
2023-01-20T17:01:26.610Z,21.35
2023-01-20T17:04:01.713Z,23.35
2023-01-20T17:06:34.076Z,23.35
2023-01-20T17:09:02.507Z,23.58
2023-01-20T17:11:32.414Z,22.15
2023-01-20T17:14:01.644Z,22.90
2023-01-20T17:16:28.442Z,23.73
2023-01-20T17:18:58.395Z,22.87
2023-01-20T17:21:27.806Z,22.83
2023-01-20T17:24:01.391Z,23.48
2023-01-20T17:26:28.848Z,23.45
2023-01-20T17:29:02.316Z,23.83
2023-01-20T17:31:31.845Z,23.25
2023-01-20T17:33:59.061Z,22.62
2023-01-20T17:36:25.676Z,24.42
2023-01-20T17:38:52.324Z,23.70
2023-01-20T17:41:18.883Z,22.70
2023-01-20T17:43:48.763Z,23.52
2023-01-20T17:46:22.497Z,23.58
2023-01-20T17:48:50.029Z,21.98
2023-01-20T17:51:19.252Z,23.70
2023-01-20T17:53:46.103Z,22.45
2023-01-20T17:56:13.969Z,23.58
2023-01-20T17:58:42.513Z,22.67
2023-01-20T18:01:31.982Z,21.70
2023-01-20T18:03:59.966Z,22.00
2023-01-20T18:06:28.058Z,22.23
2023-01-20T18:08:56.997Z,22.15
2023-01-20T18:11:25.096Z,21.30
2023-01-20T18:13:55.106Z,20.73
2023-01-20T18:16:23.824Z,21.45
2023-01-20T18:18:50.926Z,20.95
2023-01-20T18:21:20.081Z,20.48
2023-01-20T18:23:48.096Z,20.83
2023-01-20T18:26:17.498Z,21.02
2023-01-20T18:28:47.889Z,20.45
2023-01-20T18:31:18.242Z,20.15
2023-01-20T18:33:48.121Z,20.58
2023-01-20T18:36:17.800Z,21.08
2023-01-20T18:38:49.538Z,21.00
2023-01-20T18:41:16.489Z,19.42
2023-01-20T18:43:43.036Z,20.77
2023-01-20T18:46:10.007Z,21.02
2023-01-20T18:48:47.296Z,20.80
2023-01-20T18:51:15.485Z,19.62
2023-01-20T18:53:44.407Z,19.75
2023-01-20T18:56:13.842Z,19.87
2023-01-20T18:58:45.699Z,20.10
2023-01-20T19:01:14.934Z,19.77
2023-01-20T19:03:41.657Z,18.77
2023-01-20T19:06:11.260Z,20.02
2023-01-20T19:08:39.600Z,20.73
2023-01-20T19:11:17.907Z,20.42
2023-01-20T19:13:46.857Z,19.85
2023-01-20T19:16:13.627Z,19.05
2023-01-20T19:18:41.250Z,19.62
2023-01-20T19:21:11.067Z,19.73
2023-01-20T19:23:38.066Z,19.20
2023-01-20T19:26:07.407Z,20.48
2023-01-20T19:28:34.810Z,19.40
2023-01-20T19:31:10.024Z,19.83
2023-01-20T19:33:37.727Z,19.80
2023-01-20T19:36:07.269Z,19.65
2023-01-20T19:38:35.163Z,19.35
2023-01-20T19:41:09.413Z,19.70
2023-01-20T19:43:37.559Z,18.12
2023-01-20T19:46:09.596Z,19.65
2023-01-20T19:48:36.606Z,19.20
2023-01-20T19:51:04.012Z,19.40
2023-01-20T19:53:32.457Z,18.37
2023-01-20T19:56:07.377Z,20.10
2023-01-20T19:58:34.505Z,19.70
2023-01-20T20:01:11.434Z,20.05
2023-01-20T20:03:40.569Z,18.80
2023-01-20T20:06:08.746Z,19.42
2023-01-20T20:08:39.125Z,18.73
2023-01-20T20:11:10.349Z,18.73
2023-01-20T20:13:36.935Z,17.77
2023-01-20T20:16:04.833Z,18.77
2023-01-20T20:18:32.107Z,19.45
2023-01-20T20:20:58.781Z,19.33
2023-01-20T20:23:25.829Z,20.60
2023-01-20T20:25:56.309Z,18.85
2023-01-20T20:28:27.426Z,19.23
2023-01-20T20:30:57.480Z,19.37
2023-01-20T20:33:24.724Z,18.35
2023-01-20T20:35:51.791Z,18.02
2023-01-20T20:38:18.764Z,19.37
2023-01-20T20:40:45.308Z,18.65
2023-01-20T20:43:11.892Z,19.40
2023-01-20T20:45:38.579Z,19.92
2023-01-20T20:48:05.744Z,19.23
2023-01-20T20:50:32.372Z,18.95
2023-01-20T20:52:59.191Z,18.50
2023-01-20T20:55:26.293Z,20.08
2023-01-20T20:57:53.016Z,18.33
2023-01-20T21:00:23.577Z,19.55
2023-01-20T21:02:50.345Z,20.88
2023-01-20T21:05:18.994Z,18.50
2023-01-20T21:07:45.962Z,19.45
2023-01-20T21:10:15.644Z,18.87
2023-01-20T21:12:43.860Z,19.02
2023-01-20T21:15:11.579Z,18.92
2023-01-20T21:17:39.203Z,18.45
2023-01-20T21:20:07.183Z,18.08
2023-01-20T21:22:36.973Z,18.02
2023-01-20T21:25:03.917Z,18.42
2023-01-20T21:27:33.554Z,17.15
2023-01-20T21:30:00.263Z,18.00
2023-01-20T21:32:27.016Z,18.33
2023-01-20T21:34:55.115Z,17.80
2023-01-20T21:37:21.691Z,17.98
2023-01-20T21:39:48.296Z,17.25
2023-01-20T21:42:15.219Z,17.73
2023-01-20T21:44:43.183Z,17.83
2023-01-20T21:47:10.539Z,17.42
2023-01-20T21:49:55.778Z,17.02
2023-01-20T21:52:42.877Z,16.92
2023-01-20T21:55:21.594Z,17.40
2023-01-20T21:57:51.517Z,15.93
2023-01-20T22:00:18.776Z,18.52
2023-01-20T22:02:45.577Z,18.02
2023-01-20T22:05:13.422Z,16.98
2023-01-20T22:07:40.084Z,17.05
2023-01-20T22:10:07.868Z,16.77
2023-01-20T22:12:35.600Z,18.05
2023-01-20T22:15:03.397Z,16.80
2023-01-20T22:17:30.516Z,16.87
2023-01-20T22:22:38.745Z,17.70
2023-01-20T22:25:06.583Z,18.30
2023-01-20T22:27:33.193Z,18.75
2023-01-20T22:29:59.750Z,19.23
2023-01-20T22:32:27.345Z,19.37
2023-01-20T22:38:47.835Z,19.55
2023-01-20T22:41:14.466Z,18.80
2023-01-20T22:43:44.043Z,18.77
2023-01-20T22:46:15.406Z,19.60
2023-01-20T22:48:42.127Z,17.62
2023-01-20T22:51:14.476Z,18.42
2023-01-20T22:53:41.593Z,16.65
2023-01-20T22:56:11.988Z,17.17
2023-01-20T22:58:39.402Z,17.23
2023-01-20T23:01:21.973Z,17.08
2023-01-20T23:03:53.072Z,16.45
2023-01-20T23:06:19.926Z,17.33
2023-01-20T23:08:46.486Z,17.35
2023-01-20T23:11:15.153Z,17.55
2023-01-20T23:13:57.274Z,17.95
2023-01-20T23:16:23.924Z,17.87
2023-01-20T23:18:51.891Z,17.27
2023-01-20T23:21:19.973Z,17.67
2023-01-20T23:24:03.521Z,18.30
2023-01-20T23:26:30.660Z,17.87
2023-01-20T23:28:57.481Z,18.02
2023-01-20T23:31:25.382Z,17.95
2023-01-20T23:34:10.302Z,18.92
2023-01-20T23:37:11.013Z,18.95
2023-01-20T23:39:57.511Z,20.50
2023-01-20T23:42:24.072Z,19.62
2023-01-20T23:44:50.918Z,20.52
2023-01-20T23:47:17.546Z,20.75
2023-01-20T23:49:44.429Z,19.90
2023-01-20T23:52:10.995Z,21.70
2023-01-20T23:54:52.581Z,21.12
2023-01-20T23:57:20.016Z,22.00
2023-01-20T23:59:46.679Z,21.30
